createdAt,value
2023-01-08T00:00:32.472Z,6.1
2023-01-08T00:01:48.766Z,6
2023-01-08T00:03:05.068Z,6.3
2023-01-08T00:04:20.372Z,6.2
2023-01-08T00:05:36.681Z,6.1
2023-01-08T00:06:52.966Z,6.1
2023-01-08T00:08:09.259Z,6.1
2023-01-08T00:09:25.551Z,6.4
2023-01-08T00:10:41.838Z,6.1
2023-01-08T00:11:58.137Z,6
2023-01-08T00:13:14.429Z,5.8
2023-01-08T00:14:30.749Z,5.8
2023-01-08T00:15:47.025Z,6.4
2023-01-08T00:17:03.321Z,6
2023-01-08T00:18:19.613Z,6.3
2023-01-08T00:19:35.900Z,5.9
2023-01-08T00:20:52.324Z,6.1
2023-01-08T00:22:08.609Z,6.3
2023-01-08T00:23:24.913Z,5.9
2023-01-08T00:24:41.214Z,6.4
2023-01-08T00:25:57.495Z,6
2023-01-08T00:27:13.786Z,6.2
2023-01-08T00:28:30.090Z,6.3
2023-01-08T00:29:46.380Z,6.1
2023-01-08T00:31:02.690Z,6.2
2023-01-08T00:32:18.961Z,5.9
2023-01-08T00:33:35.255Z,6.2
2023-01-08T00:34:51.565Z,5.8
2023-01-08T00:36:07.862Z,6.2
2023-01-08T00:37:23.170Z,6.4
2023-01-08T00:38:39.466Z,6.1
2023-01-08T00:39:55.746Z,5.9
2023-01-08T00:41:12.036Z,5.8
2023-01-08T00:42:28.331Z,6
2023-01-08T00:43:44.639Z,6
2023-01-08T00:45:00.944Z,5.9
2023-01-08T00:46:17.237Z,5.9
2023-01-08T00:47:33.506Z,5.9
2023-01-08T00:48:49.818Z,6.3
2023-01-08T00:50:06.123Z,6
2023-01-08T00:51:22.393Z,6.2
2023-01-08T00:52:38.686Z,5.9
2023-01-08T00:53:54.003Z,5.7
2023-01-08T00:55:10.300Z,6.1
2023-01-08T00:56:26.589Z,5.7
2023-01-08T00:57:42.891Z,5.7
2023-01-08T00:58:59.189Z,5.8
2023-01-08T01:00:15.476Z,5.3
2023-01-08T01:01:31.781Z,5.6
2023-01-08T01:02:48.079Z,5.6
2023-01-08T01:04:04.359Z,5.4
2023-01-08T01:05:20.666Z,5.1
2023-01-08T01:06:36.959Z,5.2
2023-01-08T01:07:53.242Z,5.2
2023-01-08T01:09:09.526Z,5.3
2023-01-08T01:10:24.847Z,4.7
2023-01-08T01:11:41.136Z,5
2023-01-08T01:12:57.432Z,5.1
2023-01-08T01:14:13.744Z,4.9
2023-01-08T01:15:30.023Z,5.1
2023-01-08T01:16:46.318Z,5
2023-01-08T01:18:02.605Z,4.8
2023-01-08T01:19:18.905Z,5
2023-01-08T01:20:35.195Z,4.7
2023-01-08T01:21:51.482Z,4.8
2023-01-08T01:23:07.775Z,4.7
2023-01-08T01:24:24.100Z,4.6
2023-01-08T01:25:40.369Z,4.8
2023-01-08T01:26:55.677Z,4.7
2023-01-08T01:28:11.974Z,4.6
2023-01-08T01:29:28.281Z,5
2023-01-08T01:30:44.564Z,4.9
2023-01-08T01:32:00.881Z,4.4
2023-01-08T01:33:17.162Z,4.7
2023-01-08T01:34:33.443Z,4.9
2023-01-08T01:35:49.738Z,4.5
2023-01-08T01:37:06.044Z,4.6
2023-01-08T01:38:22.321Z,4.5
2023-01-08T01:39:38.621Z,4.5
2023-01-08T01:40:54.918Z,5
2023-01-08T01:42:11.219Z,4.8
2023-01-08T01:43:26.525Z,4.9
2023-01-08T01:44:42.809Z,4.5
2023-01-08T01:45:59.116Z,4.6
2023-01-08T01:47:15.397Z,4.7
2023-01-08T01:48:31.693Z,4.6
2023-01-08T01:49:48.009Z,5
2023-01-08T01:51:03.304Z,4.9
2023-01-08T01:52:19.610Z,4.9
2023-01-08T01:53:35.912Z,4.7
2023-01-08T01:54:52.185Z,4.6
2023-01-08T01:56:08.487Z,4.4
2023-01-08T01:57:24.789Z,5
2023-01-08T01:58:41.067Z,5.1
2023-01-08T01:59:57.382Z,4.9
2023-01-08T02:01:13.680Z,5
2023-01-08T02:02:29.948Z,5
2023-01-08T02:03:46.251Z,4.8
2023-01-08T02:05:02.536Z,5
2023-01-08T02:06:18.845Z,4.8
2023-01-08T02:07:34.168Z,4.8
2023-01-08T02:08:50.458Z,4.8
2023-01-08T02:10:06.751Z,4.9
2023-01-08T02:11:23.025Z,4.8
2023-01-08T02:12:39.319Z,4.5
2023-01-08T02:13:55.625Z,4.8
2023-01-08T02:15:11.920Z,4.8
2023-01-08T02:16:28.201Z,5.1
2023-01-08T02:17:44.501Z,4.7
2023-01-08T02:19:00.799Z,5
2023-01-08T02:20:17.101Z,4.8
2023-01-08T02:21:33.383Z,4.8
2023-01-08T02:22:49.689Z,4.5
2023-01-08T02:24:04.999Z,4.7
2023-01-08T02:25:21.278Z,4.6
2023-01-08T02:26:37.579Z,4.5
2023-01-08T02:27:53.877Z,5.2
2023-01-08T02:29:10.157Z,4.9
2023-01-08T02:30:26.451Z,4.6
2023-01-08T02:31:42.763Z,4.8
2023-01-08T02:32:59.044Z,4.7
2023-01-08T02:34:15.334Z,4.6
2023-01-08T02:35:31.631Z,4.5
2023-01-08T02:36:47.937Z,4.6
2023-01-08T02:38:04.239Z,4.6
2023-01-08T02:39:20.515Z,4.7
2023-01-08T02:40:35.836Z,4.5
2023-01-08T02:41:52.131Z,4.7
2023-01-08T02:43:08.417Z,4.7
2023-01-08T02:44:24.731Z,4.7
2023-01-08T02:45:41.014Z,4.6
2023-01-08T02:46:57.318Z,5
2023-01-08T02:48:13.585Z,4.9
2023-01-08T02:49:29.892Z,4.7
2023-01-08T02:50:46.182Z,4.7
2023-01-08T02:52:02.493Z,4.4
2023-01-08T02:53:18.777Z,5
2023-01-08T02:54:35.080Z,4.8
2023-01-08T02:55:51.367Z,4.2
2023-01-08T02:57:06.670Z,4.7
2023-01-08T02:58:22.969Z,4.9
2023-01-08T02:59:39.266Z,4.9
2023-01-08T03:00:55.563Z,4.4
2023-01-08T03:02:11.864Z,4.5
2023-01-08T03:03:28.146Z,4.7
2023-01-08T03:04:44.435Z,4.7
2023-01-08T03:06:00.747Z,4.3
2023-01-08T03:07:17.043Z,4.7
2023-01-08T03:08:33.327Z,4.3
2023-01-08T03:09:49.609Z,4.5
2023-01-08T03:11:05.914Z,4.8
2023-01-08T03:12:22.191Z,4.5
2023-01-08T03:13:37.516Z,4.7
2023-01-08T03:14:53.813Z,4.6
2023-01-08T03:16:10.105Z,4.7
2023-01-08T03:17:26.405Z,4.7
2023-01-08T03:18:42.683Z,4.8
2023-01-08T03:19:58.973Z,4.5
2023-01-08T03:21:15.282Z,4.9
2023-01-08T03:22:31.566Z,4.5
2023-01-08T03:23:47.879Z,4.5
2023-01-08T03:25:04.157Z,4.6
2023-01-08T03:26:20.443Z,4.4
2023-01-08T03:27:36.740Z,4.6
2023-01-08T03:28:53.046Z,4.4
2023-01-08T03:30:08.365Z,4.3
2023-01-08T03:31:24.637Z,4.7
2023-01-08T03:32:40.962Z,4.4
2023-01-08T03:33:57.240Z,4.5
2023-01-08T03:35:13.521Z,4.3
2023-01-08T03:36:29.828Z,4.5
2023-01-08T03:37:46.123Z,4.3
2023-01-08T03:39:02.421Z,4.8
2023-01-08T03:40:18.715Z,4.2
2023-01-08T03:41:34.996Z,4.3
2023-01-08T03:42:51.287Z,4.4
2023-01-08T03:44:07.588Z,4.4
2023-01-08T03:45:23.879Z,4.3
2023-01-08T03:46:39.194Z,4.1
2023-01-08T03:47:55.483Z,4.2
2023-01-08T03:49:11.784Z,4.2
2023-01-08T03:50:28.079Z,4.2
2023-01-08T03:51:44.363Z,4
2023-01-08T03:53:00.664Z,4.2
2023-01-08T03:54:16.966Z,4.2
2023-01-08T03:55:33.259Z,4.2
2023-01-08T03:56:49.551Z,3.9
2023-01-08T03:58:05.834Z,4.2
2023-01-08T03:59:22.136Z,3.7
2023-01-08T04:00:38.428Z,3.9
2023-01-08T04:01:54.743Z,4
2023-01-08T04:03:10.035Z,4
2023-01-08T04:04:26.327Z,4.3
2023-01-08T04:05:42.621Z,4.2
2023-01-08T04:06:58.929Z,3.9
2023-01-08T04:08:15.210Z,4.2
2023-01-08T04:09:31.497Z,4.3
2023-01-08T04:10:47.804Z,4
2023-01-08T04:12:04.101Z,4.1
2023-01-08T04:13:20.385Z,4.4
2023-01-08T04:14:36.676Z,4
2023-01-08T04:15:52.970Z,3.8
2023-01-08T04:17:09.271Z,4
2023-01-08T04:18:25.562Z,4
2023-01-08T04:19:40.865Z,4.2
2023-01-08T04:20:57.160Z,4
2023-01-08T04:22:13.478Z,4.1
2023-01-08T04:23:29.767Z,4.1
2023-01-08T04:24:46.045Z,4.1
2023-01-08T04:26:02.336Z,3.9
2023-01-08T04:27:18.634Z,4
2023-01-08T04:28:34.923Z,4.6
2023-01-08T04:29:51.220Z,4.1
2023-01-08T04:31:07.524Z,3.9
2023-01-08T04:32:23.825Z,3.8
2023-01-08T04:33:40.125Z,3.9
2023-01-08T04:34:56.406Z,3.8
2023-01-08T04:36:11.711Z,3.9
2023-01-08T04:37:28.007Z,3.8
2023-01-08T04:38:44.316Z,4
2023-01-08T04:40:00.616Z,3.9
2023-01-08T04:41:16.896Z,4.2
2023-01-08T04:42:33.193Z,4
2023-01-08T04:43:49.485Z,4
2023-01-08T04:45:05.781Z,4.3
2023-01-08T04:46:22.073Z,3.7
2023-01-08T04:47:38.357Z,3.9
2023-01-08T04:48:54.646Z,4
2023-01-08T04:50:10.956Z,3.9
2023-01-08T04:51:27.235Z,4
2023-01-08T04:52:42.544Z,3.8
2023-01-08T04:53:58.838Z,3.8
2023-01-08T04:55:15.142Z,3.7
2023-01-08T04:56:31.445Z,3.7
2023-01-08T04:57:47.740Z,3.6
2023-01-08T04:59:04.023Z,3.9
2023-01-08T05:00:20.329Z,3.6
2023-01-08T05:01:36.624Z,3.7
2023-01-08T05:02:52.912Z,3.7
2023-01-08T05:04:09.225Z,3.5
2023-01-08T05:05:25.501Z,3.7
2023-01-08T05:06:41.788Z,3.5
2023-01-08T05:07:58.092Z,3.7
2023-01-08T05:09:13.403Z,3.6
2023-01-08T05:10:29.684Z,3.5
2023-01-08T05:11:45.993Z,3.6
2023-01-08T05:13:02.269Z,3.9
2023-01-08T05:14:18.565Z,3.5
2023-01-08T05:15:34.863Z,3.6
2023-01-08T05:16:51.163Z,3.5
2023-01-08T05:18:07.446Z,3.9
2023-01-08T05:19:23.741Z,3.5
2023-01-08T05:20:40.052Z,3.6
2023-01-08T05:21:56.336Z,3.5
2023-01-08T05:23:12.627Z,3.7
2023-01-08T05:24:28.933Z,3.7
2023-01-08T05:25:44.249Z,3.8
2023-01-08T05:27:00.541Z,3.6
2023-01-08T05:28:16.821Z,3.5
2023-01-08T05:29:33.124Z,3.6
2023-01-08T05:30:49.423Z,3.8
2023-01-08T05:32:05.710Z,3.7
2023-01-08T05:33:21.993Z,3.7
2023-01-08T05:34:38.288Z,3.4
2023-01-08T05:35:54.596Z,3.6
2023-01-08T05:37:10.880Z,3.9
2023-01-08T05:38:27.167Z,3.5
2023-01-08T05:39:43.481Z,3.7
2023-01-08T05:40:59.758Z,3.3
2023-01-08T05:42:15.070Z,3.9
2023-01-08T05:43:31.361Z,3.8
2023-01-08T05:44:47.654Z,3.6
2023-01-08T05:46:03.947Z,3.8
2023-01-08T05:47:20.243Z,3.8
2023-01-08T05:48:36.531Z,3.8
2023-01-08T05:49:52.841Z,3.8
2023-01-08T05:51:09.126Z,3.7
2023-01-08T05:52:25.438Z,4.1
2023-01-08T05:53:41.717Z,3.8
2023-01-08T05:54:58.014Z,3.7
2023-01-08T05:56:14.295Z,3.6
2023-01-08T05:57:30.596Z,3.8
2023-01-08T05:58:45.917Z,3.6
2023-01-08T06:00:02.212Z,3.6
2023-01-08T06:01:18.496Z,3.8
2023-01-08T06:02:34.787Z,3.7
2023-01-08T06:03:51.084Z,3.8
2023-01-08T06:05:07.384Z,3.4
2023-01-08T06:06:22.693Z,3.7
2023-01-08T06:07:38.992Z,3.7
2023-01-08T06:08:55.283Z,3.7
2023-01-08T06:10:11.579Z,3.5
2023-01-08T06:11:27.863Z,3.7
2023-01-08T06:12:44.165Z,3.4
2023-01-08T06:14:00.468Z,3.5
2023-01-08T06:15:16.770Z,3.6
2023-01-08T06:16:33.046Z,3.4
2023-01-08T06:17:49.341Z,3.5
2023-01-08T06:19:05.645Z,3
2023-01-08T06:20:21.932Z,3.4
2023-01-08T06:21:38.220Z,3.3
2023-01-08T06:22:53.531Z,3.2
2023-01-08T06:24:09.819Z,3.1
2023-01-08T06:25:26.120Z,3.6
2023-01-08T06:26:42.420Z,3.2
2023-01-08T06:27:58.708Z,3.2
2023-01-08T06:29:15.015Z,3.2
2023-01-08T06:30:31.313Z,3.6
2023-01-08T06:31:47.586Z,3.4
2023-01-08T06:33:03.883Z,3.4
2023-01-08T06:34:20.192Z,3.5
2023-01-08T06:35:36.477Z,3.6
2023-01-08T06:36:52.779Z,3.4
2023-01-08T06:38:09.064Z,3.4
2023-01-08T06:39:25.475Z,3.3
2023-01-08T06:40:41.769Z,3.4
2023-01-08T06:41:58.071Z,3.6
2023-01-08T06:43:14.310Z,3.5
2023-01-08T06:44:30.554Z,3.3
2023-01-08T06:45:46.855Z,3.4
2023-01-08T06:47:03.151Z,3.5
2023-01-08T06:48:19.443Z,3.5
2023-01-08T06:49:35.691Z,3.3
2023-01-08T06:50:51.988Z,3.4
2023-01-08T06:52:08.237Z,3.4
2023-01-08T06:53:24.478Z,3.4
2023-01-08T06:54:40.725Z,3.2
2023-01-08T06:55:55.971Z,3.4
2023-01-08T06:57:12.212Z,3.2
2023-01-08T06:58:28.459Z,3.4
2023-01-08T06:59:44.709Z,3.4
2023-01-08T07:01:00.945Z,3.4
2023-01-08T07:02:17.174Z,3.2
2023-01-08T07:03:33.430Z,3.4
2023-01-08T07:04:49.650Z,3.2
2023-01-08T07:06:05.895Z,3.6
2023-01-08T07:07:22.136Z,3.4
2023-01-08T07:08:38.390Z,3.5
2023-01-08T07:09:54.614Z,3.4
2023-01-08T07:11:10.857Z,3.4
2023-01-08T07:12:26.107Z,3.2
2023-01-08T07:13:42.350Z,3.3
2023-01-08T07:14:58.594Z,3.5
2023-01-08T07:16:14.833Z,3.5
2023-01-08T07:17:31.080Z,3.4
2023-01-08T07:18:47.320Z,3.6
2023-01-08T07:20:03.561Z,3.3
2023-01-08T07:21:19.805Z,3.4
2023-01-08T07:22:36.037Z,3.2
2023-01-08T07:23:52.279Z,3.4
2023-01-08T07:25:08.513Z,3.5
2023-01-08T07:26:24.761Z,3.4
2023-01-08T07:27:40.999Z,3.5
2023-01-08T07:28:56.257Z,3.3
2023-01-08T07:30:12.488Z,3.6
2023-01-08T07:31:28.740Z,3.6
2023-01-08T07:32:44.979Z,3.9
2023-01-08T07:34:01.210Z,3.4
2023-01-08T07:35:17.450Z,3.5
2023-01-08T07:36:33.691Z,3.5
2023-01-08T07:37:49.933Z,3.5
2023-01-08T07:39:06.181Z,3.6
2023-01-08T07:40:22.421Z,3.9
2023-01-08T07:41:38.651Z,3.7
2023-01-08T07:42:54.902Z,4
2023-01-08T07:44:11.134Z,3.9
2023-01-08T07:45:26.399Z,3.6
2023-01-08T07:46:42.630Z,3.5
2023-01-08T07:47:58.865Z,3.9
2023-01-08T07:49:15.111Z,3.6
2023-01-08T07:50:31.357Z,3.9
2023-01-08T07:51:47.596Z,3.3
2023-01-08T07:53:03.829Z,3.2
2023-01-08T07:54:20.082Z,3.7
2023-01-08T07:55:36.314Z,3.6
2023-01-08T07:56:52.566Z,3.4
2023-01-08T07:58:08.799Z,3.6
2023-01-08T07:59:25.036Z,3.6
2023-01-08T08:00:41.265Z,3.5
2023-01-08T08:01:56.528Z,3.8
2023-01-08T08:03:12.771Z,3.5
2023-01-08T08:04:29.008Z,3.6
2023-01-08T08:05:45.251Z,4
2023-01-08T08:07:01.491Z,3.7
2023-01-08T08:08:17.728Z,3.9
2023-01-08T08:09:33.972Z,3.9
2023-01-08T08:10:50.216Z,3.8
2023-01-08T08:12:06.445Z,3.9
2023-01-08T08:13:22.685Z,3.7
2023-01-08T08:14:38.939Z,3.4
2023-01-08T08:15:55.176Z,3.8
2023-01-08T08:17:11.407Z,3.5
2023-01-08T08:18:26.666Z,3.3
2023-01-08T08:19:42.898Z,3.4
2023-01-08T08:20:59.141Z,3.5
2023-01-08T08:22:15.402Z,3.3
2023-01-08T08:23:31.626Z,3.3
2023-01-08T08:24:47.869Z,3.8
2023-01-08T08:26:04.109Z,3.4
2023-01-08T08:27:20.345Z,3.4
2023-01-08T08:28:36.581Z,3.6
2023-01-08T08:29:52.840Z,3.3
2023-01-08T08:31:09.064Z,3.6
2023-01-08T08:32:25.312Z,3.6
2023-01-08T08:33:41.552Z,3.5
2023-01-08T08:34:56.797Z,3.4
2023-01-08T08:36:13.042Z,3.3
2023-01-08T08:37:29.292Z,3.2
2023-01-08T08:38:45.523Z,3.2
2023-01-08T08:40:01.765Z,3.7
2023-01-08T08:41:18.007Z,3.5
2023-01-08T08:42:34.244Z,3.3
2023-01-08T08:43:50.493Z,3.5
2023-01-08T08:45:06.733Z,3.3
2023-01-08T08:46:22.969Z,3.4
2023-01-08T08:47:39.205Z,3.4
2023-01-08T08:48:55.448Z,3.7
2023-01-08T08:50:11.695Z,3.5
2023-01-08T08:51:26.950Z,3.5
2023-01-08T08:52:43.187Z,3.7
2023-01-08T08:53:59.428Z,3.5
2023-01-08T08:55:15.663Z,3.3
2023-01-08T08:56:31.915Z,3.8
2023-01-08T08:57:48.152Z,4
2023-01-08T08:59:04.390Z,3.5
2023-01-08T09:00:20.625Z,3.6
2023-01-08T09:01:36.858Z,3.8
2023-01-08T09:02:53.106Z,3.6
2023-01-08T09:04:09.343Z,3.7
2023-01-08T09:05:25.583Z,3.8
2023-01-08T09:06:41.817Z,4
2023-01-08T09:07:57.092Z,3.8
2023-01-08T09:09:13.327Z,4.1
2023-01-08T09:10:29.576Z,4
2023-01-08T09:11:45.795Z,4.1
2023-01-08T09:13:02.037Z,3.8
2023-01-08T09:14:18.280Z,3.9
2023-01-08T09:15:34.524Z,4.2
2023-01-08T09:16:50.771Z,3.8
2023-01-08T09:18:07.013Z,4
2023-01-08T09:19:23.239Z,4.1
2023-01-08T09:20:39.475Z,3.9
2023-01-08T09:21:55.731Z,3.8
2023-01-08T09:23:11.954Z,4.3
2023-01-08T09:24:27.219Z,4.2
2023-01-08T09:25:43.466Z,4.1
2023-01-08T09:26:59.698Z,4.3
2023-01-08T09:28:15.949Z,4.4
2023-01-08T09:29:32.189Z,4.5
2023-01-08T09:30:48.426Z,4.3
2023-01-08T09:32:04.660Z,4.8
2023-01-08T09:33:20.898Z,4.5
2023-01-08T09:34:37.133Z,4.7
2023-01-08T09:35:53.380Z,4.5
2023-01-08T09:37:09.617Z,4.3
2023-01-08T09:38:25.860Z,4.5
2023-01-08T09:39:42.105Z,4.5
2023-01-08T09:40:57.363Z,4.4
2023-01-08T09:42:13.593Z,4.4
2023-01-08T09:43:29.853Z,4.7
2023-01-08T09:44:46.071Z,4.3
2023-01-08T09:46:02.313Z,5
2023-01-08T09:47:18.572Z,4.7
2023-01-08T09:48:34.796Z,4.9
2023-01-08T09:49:51.042Z,4.7
2023-01-08T09:51:07.284Z,4.7
2023-01-08T09:52:23.518Z,4.9
2023-01-08T09:53:39.768Z,5.4
2023-01-08T09:54:56.012Z,5.2
2023-01-08T09:56:12.249Z,5.3
2023-01-08T09:57:27.507Z,5.4
2023-01-08T09:58:43.746Z,5.3
2023-01-08T09:59:59.979Z,5.2
2023-01-08T10:01:16.209Z,4.7
2023-01-08T10:02:32.456Z,5.1
2023-01-08T10:05:04.945Z,4.8
2023-01-08T10:06:21.180Z,4.7
2023-01-08T10:07:37.428Z,4.7
2023-01-08T10:08:53.655Z,5.1
2023-01-08T10:10:09.900Z,4.8
2023-01-08T10:11:26.133Z,4.2
2023-01-08T10:12:42.378Z,4.5
2023-01-08T10:13:57.631Z,4.7
2023-01-08T10:15:13.869Z,4.6
2023-01-08T10:16:30.108Z,4.4
2023-01-08T10:17:46.351Z,4.7
2023-01-08T10:19:02.595Z,4.8
2023-01-08T10:20:18.828Z,4.5
2023-01-08T10:21:34.097Z,4.8
2023-01-08T10:22:50.333Z,4.4
2023-01-08T10:24:06.581Z,5.1
2023-01-08T10:25:22.817Z,4.9
2023-01-08T10:26:39.056Z,4.4
2023-01-08T10:27:55.295Z,4.6
2023-01-08T10:29:11.531Z,4.6
2023-01-08T10:30:27.780Z,5.2
2023-01-08T10:31:44.020Z,4.7
2023-01-08T10:33:00.269Z,4.7
2023-01-08T10:34:16.507Z,4.4
2023-01-08T10:35:32.746Z,4.2
2023-01-08T10:36:48.992Z,4.5
2023-01-08T10:38:04.229Z,4.2
2023-01-08T10:39:20.472Z,4.4
2023-01-08T10:40:36.723Z,5.6
2023-01-08T10:41:52.953Z,5
2023-01-08T10:43:09.201Z,4.5
2023-01-08T10:44:25.434Z,4.7
2023-01-08T10:45:41.673Z,4.8
2023-01-08T10:46:57.915Z,4.6
2023-01-08T10:48:14.151Z,4.7
2023-01-08T10:49:30.397Z,4.9
2023-01-08T10:50:46.635Z,4.7
2023-01-08T10:52:02.874Z,4.5
2023-01-08T10:53:19.116Z,4.4
2023-01-08T10:54:34.385Z,4.6
2023-01-08T10:55:50.616Z,4.9
2023-01-08T10:57:06.853Z,4.7
2023-01-08T10:58:23.092Z,4.8
2023-01-08T10:59:39.337Z,4.7
2023-01-08T11:00:55.572Z,4.7
2023-01-08T11:02:11.828Z,4.7
2023-01-08T11:03:28.066Z,5.2
2023-01-08T11:04:44.307Z,5.2
2023-01-08T11:06:00.535Z,5.1
2023-01-08T11:07:16.774Z,5.4
2023-01-08T11:08:33.010Z,5.1
2023-01-08T11:09:49.258Z,4.8
2023-01-08T11:11:05.487Z,4.6
2023-01-08T11:12:20.755Z,5
2023-01-08T11:13:36.986Z,5
2023-01-08T11:14:53.227Z,4.6
2023-01-08T11:16:09.464Z,5.1
2023-01-08T11:17:25.705Z,4.7
2023-01-08T11:18:41.958Z,4.7
2023-01-08T11:19:58.191Z,4.9
2023-01-08T11:21:14.427Z,4.7
2023-01-08T11:22:30.671Z,4.7
2023-01-08T11:23:46.916Z,5
2023-01-08T11:25:03.154Z,5.1
2023-01-08T11:26:19.396Z,5.4
2023-01-08T11:27:35.641Z,5.3
2023-01-08T11:28:50.889Z,4.9
2023-01-08T11:30:07.124Z,5.7
2023-01-08T11:31:23.360Z,5.2
2023-01-08T11:32:39.609Z,5.7
2023-01-08T11:33:55.849Z,5.3
2023-01-08T11:35:12.084Z,5.5
2023-01-08T11:36:28.329Z,5.4
2023-01-08T11:37:44.568Z,5.6
2023-01-08T11:39:00.817Z,5.7
2023-01-08T11:40:17.048Z,5.6
2023-01-08T11:41:33.282Z,5.7
2023-01-08T11:42:49.542Z,5.4
2023-01-08T11:44:05.769Z,5.4
2023-01-08T11:45:21.032Z,5.3
2023-01-08T11:46:37.274Z,5.5
2023-01-08T11:47:53.504Z,5.7
2023-01-08T11:49:09.757Z,5.6
2023-01-08T11:50:25.984Z,5.7
2023-01-08T11:51:42.230Z,5.7
2023-01-08T11:52:58.470Z,6.5
2023-01-08T11:54:14.714Z,5.6
2023-01-08T11:55:30.956Z,5.4
2023-01-08T11:56:47.191Z,5.9
2023-01-08T11:58:03.429Z,5.6
2023-01-08T11:59:19.671Z,5.7
2023-01-08T12:00:35.904Z,5.7
2023-01-08T12:01:51.160Z,5.7
2023-01-08T12:03:07.418Z,5.7
2023-01-08T12:04:23.638Z,5.8
2023-01-08T12:06:56.123Z,6
2023-01-08T12:08:12.372Z,5.9
2023-01-08T12:09:28.603Z,5.7
2023-01-08T12:10:44.846Z,5.8
2023-01-08T12:12:01.084Z,6
2023-01-08T12:13:17.327Z,6.3
2023-01-08T12:14:33.571Z,5.9
2023-01-08T12:15:49.806Z,5.5
2023-01-08T12:17:06.048Z,5.5
2023-01-08T12:18:21.301Z,5.5
2023-01-08T12:19:37.552Z,5.8
2023-01-08T12:20:53.779Z,5.7
2023-01-08T12:22:10.016Z,5.7
2023-01-08T12:23:26.261Z,5.8
2023-01-08T12:24:42.513Z,5.9
2023-01-08T12:25:58.738Z,5.7
2023-01-08T12:27:14.987Z,5.7
2023-01-08T12:28:31.238Z,5.3
2023-01-08T12:29:47.472Z,5.5
2023-01-08T12:31:03.711Z,5.6
2023-01-08T12:32:19.952Z,5.8
2023-01-08T12:33:36.194Z,5.5
2023-01-08T12:34:51.444Z,6
2023-01-08T12:36:07.686Z,5.7
2023-01-08T12:37:23.925Z,5.4
2023-01-08T12:38:40.158Z,5.7
2023-01-08T12:39:56.401Z,6
2023-01-08T12:41:12.647Z,5.3
2023-01-08T12:42:28.883Z,5.3
2023-01-08T12:43:45.130Z,5.1
2023-01-08T12:45:01.361Z,5.4
2023-01-08T12:46:17.598Z,5.4
2023-01-08T12:47:33.843Z,5.5
2023-01-08T12:48:50.079Z,5.5
2023-01-08T12:50:06.323Z,5.4
2023-01-08T12:51:21.589Z,5.7
2023-01-08T12:52:37.828Z,5.6
2023-01-08T12:53:54.058Z,5.3
2023-01-08T12:55:10.314Z,5
2023-01-08T12:56:26.553Z,5.4
2023-01-08T12:57:42.793Z,5.3
2023-01-08T12:58:59.027Z,5.4
2023-01-08T13:00:15.279Z,5.7
2023-01-08T13:01:31.503Z,5.5
2023-01-08T13:02:47.745Z,5.2
2023-01-08T13:04:03.984Z,5.4
2023-01-08T13:05:20.227Z,5.4
2023-01-08T13:06:36.454Z,5.2
2023-01-08T13:07:51.724Z,5.4
2023-01-08T13:09:07.962Z,5.3
2023-01-08T13:10:24.203Z,5.5
2023-01-08T13:11:40.435Z,5.3
2023-01-08T13:12:56.686Z,5.8
2023-01-08T13:14:12.914Z,5.5
2023-01-08T13:15:29.163Z,5.6
2023-01-08T13:16:45.399Z,5.6
2023-01-08T13:18:01.638Z,5.7
2023-01-08T13:19:17.895Z,5.5
2023-01-08T13:20:34.121Z,5.4
2023-01-08T13:21:50.370Z,5.5
2023-01-08T13:23:06.605Z,5.7
2023-01-08T13:24:21.852Z,5
2023-01-08T13:25:38.107Z,5.2
2023-01-08T13:26:54.340Z,5.4
2023-01-08T13:28:10.571Z,5.4
2023-01-08T13:29:26.814Z,5.2
2023-01-08T13:30:43.061Z,5.9
2023-01-08T13:31:59.292Z,5.7
2023-01-08T13:33:15.531Z,5
2023-01-08T13:34:31.790Z,5.2
2023-01-08T13:35:48.010Z,5
2023-01-08T13:37:04.257Z,5.5
2023-01-08T13:38:20.492Z,4.8
2023-01-08T13:39:36.749Z,5.2
2023-01-08T13:40:52.007Z,5.3
2023-01-08T13:42:08.240Z,5.3
2023-01-08T13:43:24.476Z,4.8
2023-01-08T13:44:40.725Z,4.6
2023-01-08T13:45:56.959Z,5
2023-01-08T13:47:13.202Z,5.2
2023-01-08T13:48:29.435Z,5
2023-01-08T13:49:45.670Z,4.8
2023-01-08T13:51:01.923Z,4.8
2023-01-08T13:52:18.160Z,4.6
2023-01-08T13:53:34.408Z,4.7
2023-01-08T13:54:50.654Z,4.8
2023-01-08T13:56:06.886Z,4.9
2023-01-08T13:57:22.134Z,4.7
2023-01-08T13:58:38.365Z,4.9
2023-01-08T13:59:54.615Z,4.6
2023-01-08T14:01:10.857Z,4.8
2023-01-08T14:02:27.093Z,4.7
2023-01-08T14:03:43.326Z,4.7
2023-01-08T14:04:59.570Z,7
2023-01-08T14:06:15.805Z,4.7
2023-01-08T14:07:32.061Z,4.4
2023-01-08T14:08:48.287Z,4.9
2023-01-08T14:10:04.531Z,4.3
2023-01-08T14:11:20.779Z,4.8
2023-01-08T14:12:37.022Z,4.3
2023-01-08T14:13:52.272Z,4.6
2023-01-08T14:15:08.508Z,4.4
2023-01-08T14:16:24.751Z,4.7
2023-01-08T14:17:40.997Z,4.6
2023-01-08T14:18:57.242Z,4.3
2023-01-08T14:20:13.478Z,4.2
2023-01-08T14:21:29.723Z,4.3
2023-01-08T14:22:45.961Z,4.3
2023-01-08T14:24:02.202Z,4.6
2023-01-08T14:25:18.425Z,4.1
2023-01-08T14:26:34.668Z,4.6
2023-01-08T14:27:50.915Z,4.7
2023-01-08T14:29:07.149Z,4.2
2023-01-08T14:31:38.650Z,4.4
2023-01-08T14:32:54.895Z,4.2
2023-01-08T14:34:11.141Z,4.3
2023-01-08T14:35:27.378Z,4.7
2023-01-08T14:36:42.636Z,4.4
2023-01-08T14:37:58.873Z,4.5
2023-01-08T14:39:15.111Z,3.9
2023-01-08T14:40:31.357Z,4.1
2023-01-08T14:41:47.606Z,3.7
2023-01-08T14:43:03.835Z,3.7
2023-01-08T14:44:20.076Z,3.8
2023-01-08T14:45:36.320Z,3.9
2023-01-08T14:46:52.565Z,3.3
2023-01-08T14:48:08.784Z,3.7
2023-01-08T14:49:25.027Z,4
2023-01-08T14:50:41.278Z,3.6
2023-01-08T14:51:57.519Z,3.4
2023-01-08T14:53:12.773Z,3.5
2023-01-08T14:54:29.016Z,3.3
2023-01-08T14:55:45.243Z,3.1
2023-01-08T14:57:01.499Z,3.1
2023-01-08T14:58:17.726Z,3.2
2023-01-08T14:59:33.963Z,3.1
2023-01-08T15:00:50.209Z,3.1
2023-01-08T15:02:06.454Z,3.4
2023-01-08T15:03:22.694Z,3.2
2023-01-08T15:04:38.942Z,3.2
2023-01-08T15:05:55.169Z,3.1
2023-01-08T15:07:11.426Z,3.1
2023-01-08T15:08:27.655Z,3.5
2023-01-08T15:09:42.913Z,3.4
2023-01-08T15:10:59.139Z,3.1
2023-01-08T15:12:15.380Z,3
2023-01-08T15:13:31.635Z,3.4
2023-01-08T15:14:47.858Z,3.6
2023-01-08T15:16:04.110Z,3.4
2023-01-08T15:17:20.362Z,3.6
2023-01-08T15:18:36.593Z,3.5
2023-01-08T15:19:52.838Z,3.6
2023-01-08T15:21:09.084Z,3.4
2023-01-08T15:22:25.327Z,3.7
2023-01-08T15:23:41.552Z,3.5
2023-01-08T15:24:57.783Z,3.2
2023-01-08T15:26:13.044Z,3.6
2023-01-08T15:27:29.287Z,3.6
2023-01-08T15:28:45.535Z,3.6
2023-01-08T15:30:01.770Z,3.5
2023-01-08T15:31:18.017Z,3.6
2023-01-08T15:32:34.244Z,3.8
2023-01-08T15:33:50.479Z,3.9
2023-01-08T15:35:06.734Z,3.5
2023-01-08T15:36:22.958Z,3.8
2023-01-08T15:37:39.196Z,3.5
2023-01-08T15:38:55.449Z,3.6
2023-01-08T15:40:11.704Z,3.4
2023-01-08T15:41:27.917Z,6.1
2023-01-08T15:42:43.192Z,3.7
2023-01-08T15:43:59.414Z,3.7
2023-01-08T15:45:15.670Z,3.9
2023-01-08T15:46:31.904Z,3.7
2023-01-08T15:47:48.135Z,3.2
2023-01-08T15:49:04.377Z,3.3
2023-01-08T15:50:20.616Z,3.4
2023-01-08T15:51:36.875Z,3.5
2023-01-08T15:52:53.176Z,3.4
2023-01-08T15:54:09.444Z,3.4
2023-01-08T15:55:25.760Z,3.3
2023-01-08T15:56:42.034Z,3.3
2023-01-08T15:57:58.326Z,3.9
2023-01-08T15:59:13.649Z,3.8
2023-01-08T16:00:29.952Z,3.5
2023-01-08T16:01:46.000Z,3.8
2023-01-08T16:03:02.523Z,3.5
2023-01-08T16:04:18.830Z,3.2
2023-01-08T16:05:35.122Z,3.6
2023-01-08T16:06:51.406Z,3.2
2023-01-08T16:08:07.706Z,3.8
2023-01-08T16:09:23.998Z,3.2
2023-01-08T16:10:40.289Z,4.2
2023-01-08T16:11:56.581Z,3.4
2023-01-08T16:13:12.889Z,3.3
2023-01-08T16:14:29.182Z,3.4
2023-01-08T16:15:44.490Z,3.1
2023-01-08T16:17:00.781Z,3.2
2023-01-08T16:18:17.071Z,3.1
2023-01-08T16:19:33.365Z,2.7
2023-01-08T16:20:49.653Z,2.7
2023-01-08T16:22:05.952Z,2.7
2023-01-08T16:23:22.255Z,2.8
2023-01-08T16:24:38.544Z,2.5
2023-01-08T16:25:54.834Z,3.4
2023-01-08T16:27:11.125Z,2.7
2023-01-08T16:28:27.444Z,2.5
2023-01-08T16:29:43.711Z,2.9
2023-01-08T16:31:00.016Z,2.9
2023-01-08T16:32:15.322Z,2.8
2023-01-08T16:33:31.638Z,2.9
2023-01-08T16:34:47.919Z,3
2023-01-08T16:36:04.214Z,3.5
2023-01-08T16:37:20.498Z,2.6
2023-01-08T16:38:36.788Z,2.8
2023-01-08T16:39:53.100Z,2.8
2023-01-08T16:41:09.391Z,2.7
2023-01-08T16:42:25.684Z,3.2
2023-01-08T16:43:41.976Z,2.8
2023-01-08T16:44:58.272Z,2.9
2023-01-08T16:46:14.552Z,2.8
2023-01-08T16:47:30.851Z,2.8
2023-01-08T16:48:46.157Z,2.7
2023-01-08T16:50:02.471Z,2.9
2023-01-08T16:51:18.747Z,2.8
2023-01-08T16:52:35.046Z,2.3
2023-01-08T16:53:51.336Z,2.3
2023-01-08T16:55:07.641Z,2.5
2023-01-08T16:56:23.935Z,2.4
2023-01-08T16:57:40.222Z,2.6
2023-01-08T16:58:56.531Z,2.4
2023-01-08T17:00:12.811Z,2.5
2023-01-08T17:01:29.114Z,2.6
2023-01-08T17:02:45.395Z,2.6
2023-01-08T17:04:01.708Z,2.8
2023-01-08T17:05:16.997Z,2.6
2023-01-08T17:06:33.315Z,2.4
2023-01-08T17:07:49.585Z,2.7
2023-01-08T17:09:05.891Z,2.7
2023-01-08T17:10:22.173Z,2.5
2023-01-08T17:11:38.465Z,3.1
2023-01-08T17:12:54.758Z,3.4
2023-01-08T17:14:11.054Z,2.8
2023-01-08T17:15:27.349Z,2.8
2023-01-08T17:16:43.649Z,3.2
2023-01-08T17:17:59.946Z,3
2023-01-08T17:19:16.252Z,3.4
2023-01-08T17:20:32.523Z,3.5
2023-01-08T17:21:47.837Z,3.5
2023-01-08T17:23:04.150Z,3.4
2023-01-08T17:24:20.431Z,3.2
2023-01-08T17:25:36.727Z,3
2023-01-08T17:26:53.030Z,2.9
2023-01-08T17:28:09.310Z,3.3
2023-01-08T17:29:25.600Z,3.1
2023-01-08T17:30:41.909Z,2.9
2023-01-08T17:31:58.202Z,3
2023-01-08T17:33:14.479Z,3.1
2023-01-08T17:34:30.793Z,3.1
2023-01-08T17:35:47.089Z,3.4
2023-01-08T17:37:03.379Z,3.2
2023-01-08T17:38:18.673Z,3.5